sensor_id;sensor_type;location;lat;lon;timestamp;pressure;altitude;pressure_sealevel;temperature;humidity
36222;BME280;22266;52.340;4.962;2022-09-13T00:00:38;101013.13;;;20.53;64.42
36222;BME280;22266;52.340;4.962;2022-09-13T00:03:07;101007.09;;;20.51;64.75
36222;BME280;22266;52.340;4.962;2022-09-13T00:05:36;100999.13;;;20.49;64.91
36222;BME280;22266;52.340;4.962;2022-09-13T00:08:04;100997.72;;;20.47;64.96
36222;BME280;22266;52.340;4.962;2022-09-13T00:10:33;101004.53;;;20.44;65.42
36222;BME280;22266;52.340;4.962;2022-09-13T00:13:00;101014.09;;;20.42;65.72
36222;BME280;22266;52.340;4.962;2022-09-13T00:15:27;101008.84;;;20.40;65.83
36222;BME280;22266;52.340;4.962;2022-09-13T00:17:53;101004.75;;;20.38;66.22
36222;BME280;22266;52.340;4.962;2022-09-13T00:20:20;100993.22;;;20.36;66.34
36222;BME280;22266;52.340;4.962;2022-09-13T00:22:46;101000.00;;;20.33;66.38
36222;BME280;22266;52.340;4.962;2022-09-13T00:25:13;100989.34;;;20.32;66.61
36222;BME280;22266;52.340;4.962;2022-09-13T00:27:39;100998.03;;;20.29;66.74
36222;BME280;22266;52.340;4.962;2022-09-13T00:30:07;100999.13;;;20.28;66.75
36222;BME280;22266;52.340;4.962;2022-09-13T00:32:34;100995.84;;;20.25;66.97
36222;BME280;22266;52.340;4.962;2022-09-13T00:35:02;100996.91;;;20.24;67.17
36222;BME280;22266;52.340;4.962;2022-09-13T00:37:28;100984.91;;;20.25;67.13
36222;BME280;22266;52.340;4.962;2022-09-13T00:39:55;100983.22;;;20.24;67.27
36222;BME280;22266;52.340;4.962;2022-09-13T00:42:26;100977.78;;;20.24;67.26
36222;BME280;22266;52.340;4.962;2022-09-13T00:50:16;100976.94;;;20.24;67.72
36222;BME280;22266;52.340;4.962;2022-09-13T00:52:48;100979.44;;;20.25;67.77
36222;BME280;22266;52.340;4.962;2022-09-13T00:55:31;100973.72;;;20.27;67.76
36222;BME280;22266;52.340;4.962;2022-09-13T00:58:05;100975.34;;;20.28;67.92
36222;BME280;22266;52.340;4.962;2022-09-13T01:00:33;100980.00;;;20.28;68.10
36222;BME280;22266;52.340;4.962;2022-09-13T01:03:04;100978.09;;;20.28;68.13
36222;BME280;22266;52.340;4.962;2022-09-13T01:05:48;100981.63;;;20.29;67.99
36222;BME280;22266;52.340;4.962;2022-09-13T01:08:16;100972.63;;;20.28;68.32
36222;BME280;22266;52.340;4.962;2022-09-13T01:10:51;100976.44;;;20.27;68.34
36222;BME280;22266;52.340;4.962;2022-09-13T01:13:26;100975.63;;;20.27;68.30
36222;BME280;22266;52.340;4.962;2022-09-13T01:15:54;100980.50;;;20.24;68.48
36222;BME280;22266;52.340;4.962;2022-09-13T01:18:20;100967.91;;;20.23;68.63
36222;BME280;22266;52.340;4.962;2022-09-13T01:35:39;100967.22;;;20.11;68.98
36222;BME280;22266;52.340;4.962;2022-09-13T01:38:26;100962.84;;;20.10;69.19
36222;BME280;22266;52.340;4.962;2022-09-13T01:46:58;100961.44;;;20.08;69.35
36222;BME280;22266;52.340;4.962;2022-09-13T01:55:10;100948.03;;;20.06;69.61
36222;BME280;22266;52.340;4.962;2022-09-13T01:57:50;100956.47;;;20.05;69.60
36222;BME280;22266;52.340;4.962;2022-09-13T02:00:19;100961.13;;;20.04;69.37
36222;BME280;22266;52.340;4.962;2022-09-13T02:02:49;100953.44;;;20.01;69.69
36222;BME280;22266;52.340;4.962;2022-09-13T02:05:34;100949.03;;;20.00;69.85
36222;BME280;22266;52.340;4.962;2022-09-13T02:08:07;100951.22;;;19.98;69.95
36222;BME280;22266;52.340;4.962;2022-09-13T02:10:39;100947.91;;;19.96;69.97
36222;BME280;22266;52.340;4.962;2022-09-13T02:13:11;100951.72;;;19.95;70.07
36222;BME280;22266;52.340;4.962;2022-09-13T02:15:44;100943.78;;;19.93;70.26
36222;BME280;22266;52.340;4.962;2022-09-13T02:18:24;100946.25;;;19.95;70.15
36222;BME280;22266;52.340;4.962;2022-09-13T02:20:52;100947.34;;;19.94;70.31
36222;BME280;22266;52.340;4.962;2022-09-13T02:23:25;100947.91;;;19.96;70.18
36222;BME280;22266;52.340;4.962;2022-09-13T02:25:56;100943.25;;;19.96;70.32
36222;BME280;22266;52.340;4.962;2022-09-13T02:28:27;100943.53;;;19.95;70.13
36222;BME280;22266;52.340;4.962;2022-09-13T02:30:58;100940.78;;;19.95;70.44
36222;BME280;22266;52.340;4.962;2022-09-13T02:33:30;100941.88;;;19.94;70.15
36222;BME280;22266;52.340;4.962;2022-09-13T02:36:04;100952.81;;;19.94;70.10
36222;BME280;22266;52.340;4.962;2022-09-13T02:38:36;100949.25;;;19.93;70.06
36222;BME280;22266;52.340;4.962;2022-09-13T02:41:13;100947.59;;;19.92;70.27
36222;BME280;22266;52.340;4.962;2022-09-13T02:43:47;100957.69;;;19.92;70.14
36222;BME280;22266;52.340;4.962;2022-09-13T02:48:57;100949.44;;;19.87;70.24
36222;BME280;22266;52.340;4.962;2022-09-13T02:54:37;100952.66;;;19.84;70.32
36222;BME280;22266;52.340;4.962;2022-09-13T02:57:19;100953.75;;;19.83;70.52
36222;BME280;22266;52.340;4.962;2022-09-13T02:59:48;100951.28;;;19.81;70.59
36222;BME280;22266;52.340;4.962;2022-09-13T03:02:17;100945.81;;;19.81;70.57
36222;BME280;22266;52.340;4.962;2022-09-13T03:04:44;100949.59;;;19.80;70.67
36222;BME280;22266;52.340;4.962;2022-09-13T03:07:12;100947.13;;;19.79;70.54
36222;BME280;22266;52.340;4.962;2022-09-13T03:09:45;100950.97;;;19.78;70.64
36222;BME280;22266;52.340;4.962;2022-09-13T03:20:24;100954.19;;;19.74;70.88
36222;BME280;22266;52.340;4.962;2022-09-13T03:28:41;100944.91;;;19.75;70.94
36222;BME280;22266;52.340;4.962;2022-09-13T03:33:56;100943.75;;;19.71;71.05
36222;BME280;22266;52.340;4.962;2022-09-13T03:36:53;100944.84;;;19.70;70.95
36222;BME280;22266;52.340;4.962;2022-09-13T03:39:35;100945.34;;;19.67;71.05
36222;BME280;22266;52.340;4.962;2022-09-13T03:42:32;100945.84;;;19.64;70.96
36222;BME280;22266;52.340;4.962;2022-09-13T03:45:02;100946.38;;;19.61;71.09
36222;BME280;22266;52.340;4.962;2022-09-13T03:47:31;100944.91;;;19.59;71.22
36222;BME280;22266;52.340;4.962;2022-09-13T03:49:59;100945.91;;;19.52;71.44
36222;BME280;22266;52.340;4.962;2022-09-13T03:52:27;100943.44;;;19.51;71.46
36222;BME280;22266;52.340;4.962;2022-09-13T03:54:53;100944.53;;;19.50;71.38
36222;BME280;22266;52.340;4.962;2022-09-13T03:57:21;100938.47;;;19.48;71.42
36222;BME280;22266;52.340;4.962;2022-09-13T03:59:54;100938.75;;;19.46;71.57
36222;BME280;22266;52.340;4.962;2022-09-13T04:02:22;100947.19;;;19.45;71.56
36222;BME280;22266;52.340;4.962;2022-09-13T04:04:49;100952.88;;;19.43;71.53
36222;BME280;22266;52.340;4.962;2022-09-13T04:07:18;100952.06;;;19.43;71.34
36222;BME280;22266;52.340;4.962;2022-09-13T04:09:45;100950.41;;;19.42;71.63
36222;BME280;22266;52.340;4.962;2022-09-13T04:12:14;100947.34;;;19.38;71.24
36222;BME280;22266;52.340;4.962;2022-09-13T04:14:41;100950.56;;;19.35;71.61
36222;BME280;22266;52.340;4.962;2022-09-13T04:17:09;100957.94;;;19.35;71.48
36222;BME280;22266;52.340;4.962;2022-09-13T04:19:36;100963.66;;;19.33;71.59
36222;BME280;22266;52.340;4.962;2022-09-13T04:22:03;100960.13;;;19.33;72.02
36222;BME280;22266;52.340;4.962;2022-09-13T04:24:30;100959.25;;;19.32;71.61
36222;BME280;22266;52.340;4.962;2022-09-13T04:26:57;100956.53;;;19.32;71.79
36222;BME280;22266;52.340;4.962;2022-09-13T04:29:24;100956.78;;;19.31;71.77
36222;BME280;22266;52.340;4.962;2022-09-13T04:31:52;100954.88;;;19.31;71.84
36222;BME280;22266;52.340;4.962;2022-09-13T04:34:20;100954.31;;;19.29;72.01
36222;BME280;22266;52.340;4.962;2022-09-13T04:36:49;100960.84;;;19.28;72.03
36222;BME280;22266;52.340;4.962;2022-09-13T04:39:16;100964.41;;;19.29;72.09
36222;BME280;22266;52.340;4.962;2022-09-13T04:41:43;100953.25;;;19.30;71.96
36222;BME280;22266;52.340;4.962;2022-09-13T04:44:14;100963.91;;;19.32;71.96
36222;BME280;22266;52.340;4.962;2022-09-13T04:46:42;100968.31;;;19.33;71.95
36222;BME280;22266;52.340;4.962;2022-09-13T04:49:12;100965.56;;;19.33;72.17
36222;BME280;22266;52.340;4.962;2022-09-13T04:51:38;100968.31;;;19.33;72.03
36222;BME280;22266;52.340;4.962;2022-09-13T04:54:05;100967.44;;;19.32;72.23
36222;BME280;22266;52.340;4.962;2022-09-13T04:56:31;100969.94;;;19.34;72.29
36222;BME280;22266;52.340;4.962;2022-09-13T04:58:58;100972.41;;;19.35;72.23
36222;BME280;22266;52.340;4.962;2022-09-13T05:01:24;100967.56;;;19.37;72.31
36222;BME280;22266;52.340;4.962;2022-09-13T05:03:53;100970.03;;;19.39;72.28
36222;BME280;22266;52.340;4.962;2022-09-13T05:06:21;100968.13;;;19.39;72.25
36222;BME280;22266;52.340;4.962;2022-09-13T05:08:54;100968.94;;;19.40;72.28
36222;BME280;22266;52.340;4.962;2022-09-13T05:11:22;100977.72;;;19.42;72.33
36222;BME280;22266;52.340;4.962;2022-09-13T05:13:50;100976.38;;;19.44;72.42
36222;BME280;22266;52.340;4.962;2022-09-13T05:16:18;100985.41;;;19.45;72.38
36222;BME280;22266;52.340;4.962;2022-09-13T05:18:44;100990.63;;;19.46;72.32
36222;BME280;22266;52.340;4.962;2022-09-13T05:21:11;100990.63;;;19.46;72.46
36222;BME280;22266;52.340;4.962;2022-09-13T05:23:38;100993.09;;;19.48;72.44
36222;BME280;22266;52.340;4.962;2022-09-13T05:26:05;100997.50;;;19.49;72.50
36222;BME280;22266;52.340;4.962;2022-09-13T05:28:33;100995.59;;;19.49;72.39
36222;BME280;22266;52.340;4.962;2022-09-13T05:31:03;100994.50;;;19.50;72.42
36222;BME280;22266;52.340;4.962;2022-09-13T05:33:32;100992.34;;;19.52;72.54
36222;BME280;22266;52.340;4.962;2022-09-13T05:35:59;100995.91;;;19.53;72.51
36222;BME280;22266;52.340;4.962;2022-09-13T05:38:25;101009.31;;;19.55;72.40
36222;BME280;22266;52.340;4.962;2022-09-13T05:40:56;101006.56;;;19.55;72.44
36222;BME280;22266;52.340;4.962;2022-09-13T05:43:24;101015.84;;;19.54;72.50
36222;BME280;22266;52.340;4.962;2022-09-13T05:46:00;101019.41;;;19.54;72.60
36222;BME280;22266;52.340;4.962;2022-09-13T05:48:27;101022.63;;;19.51;73.31
36222;BME280;22266;52.340;4.962;2022-09-13T05:50:53;101033.28;;;19.52;73.46
36222;BME280;22266;52.340;4.962;2022-09-13T05:53:24;101035.78;;;19.54;73.55
36222;BME280;22266;52.340;4.962;2022-09-13T05:55:50;101032.56;;;19.57;73.70
36222;BME280;22266;52.340;4.962;2022-09-13T05:58:16;101029.56;;;19.59;73.61
36222;BME280;22266;52.340;4.962;2022-09-13T06:00:43;101032.91;;;19.61;73.53
36222;BME280;22266;52.340;4.962;2022-09-13T06:03:09;101035.88;;;19.59;73.54
36222;BME280;22266;52.340;4.962;2022-09-13T06:05:35;101042.97;;;19.60;73.71
36222;BME280;22266;52.340;4.962;2022-09-13T06:08:02;101033.13;;;19.59;73.65
36222;BME280;22266;52.340;4.962;2022-09-13T06:10:28;101039.69;;;19.58;73.45
36222;BME280;22266;52.340;4.962;2022-09-13T06:12:55;101035.53;;;19.56;73.33
36222;BME280;22266;52.340;4.962;2022-09-13T06:15:21;101039.34;;;19.55;73.27
36222;BME280;22266;52.340;4.962;2022-09-13T06:17:48;101045.88;;;19.54;73.13
36222;BME280;22266;52.340;4.962;2022-09-13T06:20:14;101034.97;;;19.54;73.14
36222;BME280;22266;52.340;4.962;2022-09-13T06:22:41;101030.06;;;19.56;73.04
36222;BME280;22266;52.340;4.962;2022-09-13T06:25:07;101036.13;;;19.58;72.90
36222;BME280;22266;52.340;4.962;2022-09-13T06:27:34;101052.25;;;19.59;72.66
36222;BME280;22266;52.340;4.962;2022-09-13T06:30:01;101048.44;;;19.60;72.74
36222;BME280;22266;52.340;4.962;2022-09-13T06:32:27;101048.44;;;19.60;72.64
36222;BME280;22266;52.340;4.962;2022-09-13T06:34:53;101049.28;;;19.61;72.70
36222;BME280;22266;52.340;4.962;2022-09-13T06:37:20;101046.56;;;19.61;72.75
36222;BME280;22266;52.340;4.962;2022-09-13T06:39:47;101033.94;;;19.60;72.87
36222;BME280;22266;52.340;4.962;2022-09-13T06:42:13;101038.59;;;19.59;72.72
36222;BME280;22266;52.340;4.962;2022-09-13T06:44:40;101039.41;;;19.60;72.60
36222;BME280;22266;52.340;4.962;2022-09-13T06:47:06;101035.03;;;19.59;72.60
36222;BME280;22266;52.340;4.962;2022-09-13T06:49:32;101042.97;;;19.60;72.19
36222;BME280;22266;52.340;4.962;2022-09-13T06:51:59;101033.63;;;19.56;71.75
36222;BME280;22266;52.340;4.962;2022-09-13T06:54:25;101040.44;;;19.54;71.67
36222;BME280;22266;52.340;4.962;2022-09-13T06:56:52;101031.16;;;19.55;71.43
36222;BME280;22266;52.340;4.962;2022-09-13T06:59:18;101033.06;;;19.54;71.02
36222;BME280;22266;52.340;4.962;2022-09-13T07:01:45;101031.16;;;19.55;71.27
36222;BME280;22266;52.340;4.962;2022-09-13T07:04:17;101031.47;;;19.58;71.06
36222;BME280;22266;52.340;4.962;2022-09-13T07:06:46;101036.34;;;19.56;70.79
36222;BME280;22266;52.340;4.962;2022-09-13T07:09:19;101036.94;;;19.58;70.62
36222;BME280;22266;52.340;4.962;2022-09-13T07:11:48;101041.59;;;19.58;70.55
36222;BME280;22266;52.340;4.962;2022-09-13T07:14:21;101035.53;;;19.56;70.27
36222;BME280;22266;52.340;4.962;2022-09-13T07:16:48;101038.03;;;19.57;70.51
36222;BME280;22266;52.340;4.962;2022-09-13T07:19:27;101035.28;;;19.57;70.31
36222;BME280;22266;52.340;4.962;2022-09-13T07:21:55;101044.53;;;19.56;70.29
36222;BME280;22266;52.340;4.962;2022-09-13T07:24:22;101036.94;;;19.58;70.07
36222;BME280;22266;52.340;4.962;2022-09-13T07:26:49;101038.59;;;19.59;70.13
36222;BME280;22266;52.340;4.962;2022-09-13T07:29:17;101031.84;;;19.62;70.12
36222;BME280;22266;52.340;4.962;2022-09-13T07:31:46;101033.00;;;19.66;69.96
36222;BME280;22266;52.340;4.962;2022-09-13T07:34:18;101040.69;;;19.69;69.98
36222;BME280;22266;52.340;4.962;2022-09-13T07:36:46;101035.31;;;19.74;69.90
36222;BME280;22266;52.340;4.962;2022-09-13T07:39:14;101041.34;;;19.76;69.72
36222;BME280;22266;52.340;4.962;2022-09-13T07:41:45;101037.28;;;19.79;69.52
36222;BME280;22266;52.340;4.962;2022-09-13T07:44:12;101045.22;;;19.80;69.65
36222;BME280;22266;52.340;4.962;2022-09-13T07:46:39;101047.19;;;19.85;69.38
36222;BME280;22266;52.340;4.962;2022-09-13T07:49:07;101051.59;;;19.86;69.37
36222;BME280;22266;52.340;4.962;2022-09-13T07:51:38;101053.31;;;19.92;69.33
36222;BME280;22266;52.340;4.962;2022-09-13T07:54:10;101053.09;;;19.93;69.08
36222;BME280;22266;52.340;4.962;2022-09-13T07:56:39;101057.47;;;19.94;69.21
36222;BME280;22266;52.340;4.962;2022-09-13T07:59:10;101058.84;;;19.97;69.30
36222;BME280;22266;52.340;4.962;2022-09-13T08:01:40;101060.00;;;20.01;68.97
36222;BME280;22266;52.340;4.962;2022-09-13T08:04:09;101059.44;;;19.99;69.00
36222;BME280;22266;52.340;4.962;2022-09-13T08:06:38;101063.81;;;20.00;68.96
36222;BME280;22266;52.340;4.962;2022-09-13T08:09:06;101063.81;;;20.00;68.92
36222;BME280;22266;52.340;4.962;2022-09-13T08:11:36;101062.22;;;20.04;68.81
36222;BME280;22266;52.340;4.962;2022-09-13T08:14:04;101069.34;;;20.05;68.67
36222;BME280;22266;52.340;4.962;2022-09-13T08:16:31;101057.69;;;20.10;68.21
36222;BME280;22266;52.340;4.962;2022-09-13T08:19:00;101069.94;;;20.07;68.50
36222;BME280;22266;52.340;4.962;2022-09-13T08:21:35;101071.03;;;20.06;68.23
36222;BME280;22266;52.340;4.962;2022-09-13T08:24:03;101070.44;;;20.04;68.38
36222;BME280;22266;52.340;4.962;2022-09-13T08:26:31;101070.19;;;20.06;68.59
36222;BME280;22266;52.340;4.962;2022-09-13T08:29:00;101070.19;;;20.06;68.30
36222;BME280;22266;52.340;4.962;2022-09-13T08:31:27;101077.81;;;20.04;68.31
36222;BME280;22266;52.340;4.962;2022-09-13T08:33:54;101075.91;;;20.04;68.63
36222;BME280;22266;52.340;4.962;2022-09-13T08:36:22;101081.38;;;20.04;68.37
36222;BME280;22266;52.340;4.962;2022-09-13T08:38:52;101077.03;;;20.08;68.27
36222;BME280;22266;52.340;4.962;2022-09-13T08:44:25;101079.84;;;20.13;68.05
36222;BME280;22266;52.340;4.962;2022-09-13T08:47:00;101078.19;;;20.12;68.42
36222;BME280;22266;52.340;4.962;2022-09-13T08:49:31;101070.59;;;20.14;68.42
36222;BME280;22266;52.340;4.962;2022-09-13T08:52:10;101076.06;;;20.14;68.28
36222;BME280;22266;52.340;4.962;2022-09-13T08:54:41;101077.09;;;20.13;68.32
36222;BME280;22266;52.340;4.962;2022-09-13T08:57:16;101078.69;;;20.09;68.16
36222;BME280;22266;52.340;4.962;2022-09-13T09:00:20;101077.63;;;20.10;68.38
36222;BME280;22266;52.340;4.962;2022-09-13T09:05:46;101082.56;;;20.13;67.99
36222;BME280;22266;52.340;4.962;2022-09-13T09:08:30;101077.69;;;20.15;67.67
36222;BME280;22266;52.340;4.962;2022-09-13T09:11:03;101075.03;;;20.20;67.71
36222;BME280;22266;52.340;4.962;2022-09-13T09:13:54;101075.13;;;20.25;67.45
36222;BME280;22266;52.340;4.962;2022-09-13T09:16:49;101081.16;;;20.28;67.37
36222;BME280;22266;52.340;4.962;2022-09-13T09:19:22;101081.16;;;20.28;66.80
36222;BME280;22266;52.340;4.962;2022-09-13T09:21:50;101079.81;;;20.30;66.44
36222;BME280;22266;52.340;4.962;2022-09-13T09:24:22;101074.16;;;20.37;66.20
36222;BME280;22266;52.340;4.962;2022-09-13T09:26:52;101088.66;;;20.37;65.81
36222;BME280;22266;52.340;4.962;2022-09-13T09:29:21;101085.09;;;20.37;65.44
36222;BME280;22266;52.340;4.962;2022-09-13T09:37:30;101085.31;;;20.52;64.64
36222;BME280;22266;52.340;4.962;2022-09-13T09:40:02;101085.91;;;20.54;63.90
36222;BME280;22266;52.340;4.962;2022-09-13T09:42:43;101080.44;;;20.54;63.60
36222;BME280;22266;52.340;4.962;2022-09-13T09:47:50;101086.72;;;20.55;63.25
36222;BME280;22266;52.340;4.962;2022-09-13T09:50:23;101087.78;;;20.54;62.96
36222;BME280;22266;52.340;4.962;2022-09-13T09:52:56;101081.06;;;20.61;62.88
36222;BME280;22266;52.340;4.962;2022-09-13T09:55:29;101082.19;;;20.65;62.87
36222;BME280;22266;52.340;4.962;2022-09-13T09:58:01;101085.56;;;20.72;62.59
36222;BME280;22266;52.340;4.962;2022-09-13T10:00:32;101077.94;;;20.74;61.85
36222;BME280;22266;52.340;4.962;2022-09-13T10:03:06;101074.13;;;20.76;61.80
36222;BME280;22266;52.340;4.962;2022-09-13T10:05:34;101068.66;;;20.76;61.61
36222;BME280;22266;52.340;4.962;2022-09-13T10:08:06;101071.56;;;20.69;61.32
36222;BME280;22266;52.340;4.962;2022-09-13T10:10:56;101074.81;;;20.66;60.86
36222;BME280;22266;52.340;4.962;2022-09-13T10:13:25;101077.81;;;20.64;61.20
36222;BME280;22266;52.340;4.962;2022-09-13T10:16:24;101080.88;;;20.68;61.31
36222;BME280;22266;52.340;4.962;2022-09-13T10:18:51;101071.84;;;20.67;61.27
36222;BME280;22266;52.340;4.962;2022-09-13T10:23:45;101063.63;;;20.67;60.65
36222;BME280;22266;52.340;4.962;2022-09-13T10:26:23;101071.25;;;20.65;60.69
36222;BME280;22266;52.340;4.962;2022-09-13T10:28:58;101070.69;;;20.63;60.32
36222;BME280;22266;52.340;4.962;2022-09-13T10:31:30;101063.00;;;20.60;60.19
36222;BME280;22266;52.340;4.962;2022-09-13T10:34:00;101072.59;;;20.63;60.35
36222;BME280;22266;52.340;4.962;2022-09-13T10:36:33;101073.75;;;20.67;59.87
36222;BME280;22266;52.340;4.962;2022-09-13T10:39:20;101072.66;;;20.68;59.94
36222;BME280;22266;52.340;4.962;2022-09-13T10:41:54;101059.31;;;20.71;59.92
36222;BME280;22266;52.340;4.962;2022-09-13T10:47:03;101072.72;;;20.73;59.65
36222;BME280;22266;52.340;4.962;2022-09-13T10:49:47;101075.72;;;20.71;59.43
36222;BME280;22266;52.340;4.962;2022-09-13T10:52:41;101074.63;;;20.72;58.93
36222;BME280;22266;52.340;4.962;2022-09-13T11:06:06;101068.06;;;20.73;58.92
36222;BME280;22266;52.340;4.962;2022-09-13T11:17:15;101064.34;;;20.85;56.85
36222;BME280;22266;52.340;4.962;2022-09-13T11:19:48;101060.53;;;20.86;56.85
36222;BME280;22266;52.340;4.962;2022-09-13T11:22:49;101058.34;;;20.83;56.75
36222;BME280;22266;52.340;4.962;2022-09-13T11:25:35;101052.88;;;20.83;57.02
36222;BME280;22266;52.340;4.962;2022-09-13T11:37:09;101056.41;;;20.83;55.79
36222;BME280;22266;52.340;4.962;2022-09-13T11:39:50;101054.81;;;20.87;56.01
36222;BME280;22266;52.340;4.962;2022-09-13T11:42:43;101052.41;;;20.91;55.18
36222;BME280;22266;52.340;4.962;2022-09-13T11:45:20;101043.38;;;20.90;53.82
36222;BME280;22266;52.340;4.962;2022-09-13T11:48:20;101044.28;;;21.01;53.75
36222;BME280;22266;52.340;4.962;2022-09-13T11:56:39;101049.78;;;21.06;54.04
36222;BME280;22266;52.340;4.962;2022-09-13T12:01:45;101044.47;;;21.21;53.87
36222;BME280;22266;52.340;4.962;2022-09-13T12:08:01;101036.50;;;21.15;51.71
36222;BME280;22266;52.340;4.962;2022-09-13T12:10:50;101032.00;;;21.04;50.71
36222;BME280;22266;52.340;4.962;2022-09-13T12:13:25;101033.09;;;21.03;51.77
36222;BME280;22266;52.340;4.962;2022-09-13T12:15:55;101050.38;;;21.08;52.13
36222;BME280;22266;52.340;4.962;2022-09-13T12:18:33;101048.47;;;21.09;52.82
36222;BME280;22266;52.340;4.962;2022-09-13T12:21:10;101052.03;;;21.09;51.52
36222;BME280;22266;52.340;4.962;2022-09-13T12:26:30;101042.56;;;21.22;52.41
36222;BME280;22266;52.340;4.962;2022-09-13T12:29:05;101044.00;;;21.30;52.15
36222;BME280;22266;52.340;4.962;2022-09-13T12:31:32;101037.97;;;21.28;51.93
36222;BME280;22266;52.340;4.962;2022-09-13T12:34:04;101047.56;;;21.30;52.21
36222;BME280;22266;52.340;4.962;2022-09-13T12:36:44;101043.50;;;21.33;52.04
36222;BME280;22266;52.340;4.962;2022-09-13T12:50:48;101065.47;;;21.11;50.61
36222;BME280;22266;52.340;4.962;2022-09-13T12:53:40;101060.03;;;21.16;51.13
36222;BME280;22266;52.340;4.962;2022-09-13T13:01:53;101046.03;;;21.39;50.83
36222;BME280;22266;52.340;4.962;2022-09-13T13:04:33;101043.56;;;21.43;50.95
36222;BME280;22266;52.340;4.962;2022-09-13T13:07:05;101038.72;;;21.50;50.57
36222;BME280;22266;52.340;4.962;2022-09-13T13:09:38;101041.44;;;21.50;49.75
36222;BME280;22266;52.340;4.962;2022-09-13T13:14:51;101035.28;;;21.33;49.78
36222;BME280;22266;52.340;4.962;2022-09-13T13:20:43;101036.25;;;21.48;49.11
36222;BME280;22266;52.340;4.962;2022-09-13T13:33:49;101044.63;;;21.69;51.15
36222;BME280;22266;52.340;4.962;2022-09-13T13:39:32;101040.47;;;21.66;50.88
36222;BME280;22266;52.340;4.962;2022-09-13T14:00:27;101053.81;;;21.26;51.33
36222;BME280;22266;52.340;4.962;2022-09-13T14:05:37;101060.19;;;21.31;51.69
36222;BME280;22266;52.340;4.962;2022-09-13T14:08:37;101050.38;;;21.35;51.65
36222;BME280;22266;52.340;4.962;2022-09-13T14:11:36;101053.69;;;21.37;51.58
36222;BME280;22266;52.340;4.962;2022-09-13T14:19:50;101044.00;;;21.30;50.97
36222;BME280;22266;52.340;4.962;2022-09-13T14:22:23;101042.31;;;21.23;51.59
36222;BME280;22266;52.340;4.962;2022-09-13T14:24:52;101034.81;;;21.14;51.79
36222;BME280;22266;52.340;4.962;2022-09-13T14:27:39;101039.97;;;21.10;51.78
36222;BME280;22266;52.340;4.962;2022-09-13T14:30:21;101048.72;;;21.07;52.00
36222;BME280;22266;52.340;4.962;2022-09-13T14:32:51;101050.81;;;20.95;52.15
36222;BME280;22266;52.340;4.962;2022-09-13T14:35:35;101045.25;;;20.90;52.99
36222;BME280;22266;52.340;4.962;2022-09-13T14:38:20;101046.66;;;20.92;52.69
36222;BME280;22266;52.340;4.962;2022-09-13T14:40:48;101041.19;;;20.92;53.23
36222;BME280;22266;52.340;4.962;2022-09-13T14:43:19;101044.22;;;20.96;52.81
36222;BME280;22266;52.340;4.962;2022-09-13T14:45:48;101047.44;;;20.88;52.80
36222;BME280;22266;52.340;4.962;2022-09-13T14:48:26;101051.19;;;20.82;53.27
36222;BME280;22266;52.340;4.962;2022-09-13T14:51:00;101053.41;;;20.85;53.01
36222;BME280;22266;52.340;4.962;2022-09-13T14:53:31;101052.59;;;20.84;53.09
36222;BME280;22266;52.340;4.962;2022-09-13T14:56:05;101049.03;;;20.84;52.93
36222;BME280;22266;52.340;4.962;2022-09-13T14:58:55;101049.50;;;20.76;52.54
36222;BME280;22266;52.340;4.962;2022-09-13T15:01:28;101050.00;;;20.72;53.40
36222;BME280;22266;52.340;4.962;2022-09-13T15:03:57;101046.25;;;20.79;53.56
36222;BME280;22266;52.340;4.962;2022-09-13T15:08:58;101046.53;;;20.82;53.26
36222;BME280;22266;52.340;4.962;2022-09-13T15:11:33;101048.09;;;20.73;52.67
36222;BME280;22266;52.340;4.962;2022-09-13T15:16:51;101053.25;;;20.69;54.16
36222;BME280;22266;52.340;4.962;2022-09-13T15:19:29;101049.50;;;20.76;54.56
36222;BME280;22266;52.340;4.962;2022-09-13T15:22:17;101048.41;;;20.77;53.64
36222;BME280;22266;52.340;4.962;2022-09-13T15:24:51;101041.44;;;20.64;54.16
36222;BME280;22266;52.340;4.962;2022-09-13T15:27:21;101031.00;;;20.61;54.55
36222;BME280;22266;52.340;4.962;2022-09-13T15:29:51;101035.50;;;20.72;54.67
36222;BME280;22266;52.340;4.962;2022-09-13T15:32:42;101035.34;;;20.84;54.49
36222;BME280;22266;52.340;4.962;2022-09-13T15:35:23;101031.84;;;20.88;54.35
36222;BME280;22266;52.340;4.962;2022-09-13T15:38:00;101041.50;;;20.96;54.54
36222;BME280;22266;52.340;4.962;2022-09-13T15:40:28;101034.38;;;20.95;54.23
36222;BME280;22266;52.340;4.962;2022-09-13T15:42:55;101036.84;;;20.96;54.33
36222;BME280;22266;52.340;4.962;2022-09-13T15:45:22;101032.47;;;20.95;53.98
36222;BME280;22266;52.340;4.962;2022-09-13T15:47:50;101033.25;;;20.91;54.08
36222;BME280;22266;52.340;4.962;2022-09-13T15:50:25;101023.28;;;20.80;53.99
36222;BME280;22266;52.340;4.962;2022-09-13T15:52:54;101022.69;;;20.78;54.42
36222;BME280;22266;52.340;4.962;2022-09-13T15:55:20;101026.00;;;20.80;54.39
36222;BME280;22266;52.340;4.962;2022-09-13T15:57:48;101034.56;;;20.88;54.40
36222;BME280;22266;52.340;4.962;2022-09-13T16:00:20;101035.44;;;20.94;53.64
36222;BME280;22266;52.340;4.962;2022-09-13T16:02:47;101029.09;;;20.88;53.80
36222;BME280;22266;52.340;4.962;2022-09-13T16:05:14;101040.25;;;20.82;54.13
36222;BME280;22266;52.340;4.962;2022-09-13T16:07:41;101032.03;;;20.82;54.41
36222;BME280;22266;52.340;4.962;2022-09-13T16:10:18;101025.22;;;20.84;54.42
36222;BME280;22266;52.340;4.962;2022-09-13T16:12:45;101027.69;;;20.86;54.34
36222;BME280;22266;52.340;4.962;2022-09-13T16:15:12;101021.25;;;20.70;54.33
36222;BME280;22266;52.340;4.962;2022-09-13T16:17:39;101027.88;;;20.52;54.12
36222;BME280;22266;52.340;4.962;2022-09-13T16:20:06;101021.97;;;20.38;54.80